• Join FlightAware (Why Join?)
  • Login
  • US Flag 
10:26AM EDT


 

Airport Tracker/Info


-or-


 

Live Flight TrackerFlight Track Log ✈ EJA941 ✈ 12-Aug-2013 ✈ KHPN - KBOS

Flight Track Log - Related Links

Times and Time Zones

All times are in EDT time to prevent confusion due to time zone crossing. See the EJA941 flight status page for this flight to view local times or setup timezone preferences in your user account.

Time Position Orientation Groundspeed Altitude Reporting Facility
EDT Latitude Longitude Course Direction KTS MPH feet Rate Location/Type
10:41AM 41.1167 -73.8167 298° West 231 266 3,400  Level New York TRACON
10:42AM 41.1500 -73.7667 48° Northeast 243 280 6,800 3,360 Climbing New York TRACON
10:43AM 41.1833 -73.7000 56° Northeast 269 310 10,200 2,820 Climbing New York TRACON
10:44AM 41.2333 -73.5833 60° Northeast 335 386 12,500 960 Climbing New York TRACON
10:46AM 41.3153 -73.3411 66° East 428 493 13,000 120 Climbing Boston Center
10:48AM 41.3922 -73.0489 71° East 430 495 13,000  Level Boston Center
10:49AM 41.4219 -72.9078 74° East 419 482 13,000  Level Boston Center
10:50AM 41.4600 -72.7336 74° East 437 503 13,000  Level Boston Center
10:51AM 41.4894 -72.5897 75° East 445 512 13,000  Level Boston Center
10:52AM 41.5272 -72.4122 74° East 450 518 13,000  Level Boston Center
10:53AM 41.5625 -72.2653 72° East 455 524 13,000  Level Boston Center
10:54AM 41.6058 -72.0958 71° East 460 529 13,000  Level Boston Center
10:55AM 41.6428 -71.9567 70° East 444 511 13,000  Level Boston Center
10:56AM 41.6878 -71.7842 71° East 444 511 13,000  Level Boston Center
10:57AM 41.7183 -71.6558 72° East 444 511 13,000  Level Boston Center
10:58AM 41.7669 -71.4714 70° East 444 511 13,000  Level Boston Center
10:59AM 41.8031 -71.3317 71° East 444 511 13,000 -780 Level Boston Center
11:00AM 41.8431 -71.1722 71° East 425 489 11,500 -1,020 Descending Boston Center
11:01AM 41.8794 -71.0683 65° Northeast 371 427 11,000 -300 Descending Boston Center
11:02AM 41.9239 -70.9642 60° Northeast 344 396 11,000  Level Boston Center
11:03AM 41.9847 -70.8314 58° Northeast 344 396 11,000 -600 Level Boston Center
11:04AM 42.0414 -70.7236 55° Northeast 339 390 9,900 -1,380 Descending Boston Center
11:05AM 42.1006 -70.6381 47° Northeast 327 376 8,300 -1,560 Descending Boston Center
11:06AM 42.1731 -70.6053 19° North 288 331 6,800 -1,320 Descending Boston Center
11:07AM 42.2417 -70.6058 360° North 255 293 5,700 -1,080 Descending Boston Center
11:08AM 42.3067 -70.6208 350° North 238 274 4,500 -840 Descending Boston Center
11:09AM 42.3739 -70.6528 341° North 222 255 4,000 -720 Descending Boston Center
11:10AM 42.4081 -70.7022 313° West 188 216 3,100 -540 Descending Boston Center
11:11AM 42.4025 -70.7586 262° West 149 171 3,000 -420 Descending Boston Center
11:12AM 42.3908 -70.8236 256° West 156 180 2,300 -720 Descending Boston Center
11:13AM 42.3814 -70.8803 257° West 173 199 1,600 -780 Descending Boston Center
11:14AM 42.3667 -70.9500 254° West 135 155 600 -840 Descending KA90
11:16AM 42.3500 -71.0000 North  Level FlightAware Approximate